sensor_id;sensor_type;location;lat;lon;timestamp;temperature;humidity
52030;DHT22;38043;53.224;6.580;2023-06-14T00:01:38;16.60;79.60
52030;DHT22;38043;53.224;6.580;2023-06-14T00:04:03;16.50;80.10
52030;DHT22;38043;53.224;6.580;2023-06-14T00:06:31;16.50;80.50
52030;DHT22;38043;53.224;6.580;2023-06-14T00:08:56;16.50;80.70
52030;DHT22;38043;53.224;6.580;2023-06-14T00:11:22;16.50;81.10
52030;DHT22;38043;53.224;6.580;2023-06-14T00:13:48;16.40;81.80
52030;DHT22;38043;53.224;6.580;2023-06-14T00:16:13;16.40;81.60
52030;DHT22;38043;53.224;6.580;2023-06-14T00:18:39;16.30;82.30
52030;DHT22;38043;53.224;6.580;2023-06-14T00:21:05;16.30;82.40
52030;DHT22;38043;53.224;6.580;2023-06-14T00:23:30;16.20;83.20
52030;DHT22;38043;53.224;6.580;2023-06-14T00:25:56;16.10;83.30
52030;DHT22;38043;53.224;6.580;2023-06-14T00:28:22;16.10;84.00
52030;DHT22;38043;53.224;6.580;2023-06-14T00:30:47;16.10;84.00
52030;DHT22;38043;53.224;6.580;2023-06-14T00:33:13;16.00;84.30
52030;DHT22;38043;53.224;6.580;2023-06-14T00:35:39;16.00;84.70
52030;DHT22;38043;53.224;6.580;2023-06-14T00:38:05;15.90;85.10
52030;DHT22;38043;53.224;6.580;2023-06-14T00:40:31;15.90;85.50
52030;DHT22;38043;53.224;6.580;2023-06-14T00:42:56;15.90;85.70
52030;DHT22;38043;53.224;6.580;2023-06-14T00:45:22;15.80;85.60
52030;DHT22;38043;53.224;6.580;2023-06-14T00:47:48;15.80;86.20
52030;DHT22;38043;53.224;6.580;2023-06-14T00:50:16;15.80;86.40
52030;DHT22;38043;53.224;6.580;2023-06-14T00:52:42;15.70;86.80
52030;DHT22;38043;53.224;6.580;2023-06-14T00:55:08;15.70;86.80
52030;DHT22;38043;53.224;6.580;2023-06-14T00:57:34;15.70;87.00
52030;DHT22;38043;53.224;6.580;2023-06-14T01:00:03;15.70;87.10
52030;DHT22;38043;53.224;6.580;2023-06-14T01:02:34;15.60;87.20
52030;DHT22;38043;53.224;6.580;2023-06-14T01:05:00;15.60;87.80
52030;DHT22;38043;53.224;6.580;2023-06-14T01:07:46;15.60;88.00
52030;DHT22;38043;53.224;6.580;2023-06-14T01:13:37;15.50;88.50
52030;DHT22;38043;53.224;6.580;2023-06-14T01:16:05;15.50;88.90
52030;DHT22;38043;53.224;6.580;2023-06-14T01:18:32;15.40;88.90
52030;DHT22;38043;53.224;6.580;2023-06-14T01:20:59;15.40;89.00
52030;DHT22;38043;53.224;6.580;2023-06-14T01:23:25;15.40;89.20
52030;DHT22;38043;53.224;6.580;2023-06-14T01:25:57;15.30;90.00
52030;DHT22;38043;53.224;6.580;2023-06-14T01:28:23;15.30;90.00
52030;DHT22;38043;53.224;6.580;2023-06-14T01:30:52;15.30;90.00
52030;DHT22;38043;53.224;6.580;2023-06-14T01:33:21;15.30;90.10
52030;DHT22;38043;53.224;6.580;2023-06-14T01:35:49;15.30;90.20
52030;DHT22;38043;53.224;6.580;2023-06-14T01:38:15;15.20;90.50
52030;DHT22;38043;53.224;6.580;2023-06-14T01:40:45;15.20;90.70
52030;DHT22;38043;53.224;6.580;2023-06-14T01:43:14;15.10;90.90
52030;DHT22;38043;53.224;6.580;2023-06-14T01:45:43;15.20;90.90
52030;DHT22;38043;53.224;6.580;2023-06-14T01:48:09;15.10;91.50
52030;DHT22;38043;53.224;6.580;2023-06-14T01:50:35;15.10;91.20
52030;DHT22;38043;53.224;6.580;2023-06-14T01:53:01;15.10;91.10
52030;DHT22;38043;53.224;6.580;2023-06-14T01:55:27;15.00;91.70
52030;DHT22;38043;53.224;6.580;2023-06-14T01:57:53;15.00;91.50
52030;DHT22;38043;53.224;6.580;2023-06-14T02:00:19;15.00;91.70
52030;DHT22;38043;53.224;6.580;2023-06-14T02:02:47;15.00;92.00
52030;DHT22;38043;53.224;6.580;2023-06-14T02:05:12;15.00;92.10
52030;DHT22;38043;53.224;6.580;2023-06-14T02:07:38;15.00;92.20
52030;DHT22;38043;53.224;6.580;2023-06-14T02:10:07;15.00;92.30
52030;DHT22;38043;53.224;6.580;2023-06-14T02:12:33;14.90;92.40
52030;DHT22;38043;53.224;6.580;2023-06-14T02:14:58;14.90;92.40
52030;DHT22;38043;53.224;6.580;2023-06-14T02:17:24;14.90;92.60
52030;DHT22;38043;53.224;6.580;2023-06-14T02:19:50;14.90;92.70
52030;DHT22;38043;53.224;6.580;2023-06-14T02:22:16;14.90;92.80
52030;DHT22;38043;53.224;6.580;2023-06-14T02:24:42;14.90;92.90
52030;DHT22;38043;53.224;6.580;2023-06-14T02:27:08;14.90;93.00
52030;DHT22;38043;53.224;6.580;2023-06-14T02:29:36;14.90;93.10
52030;DHT22;38043;53.224;6.580;2023-06-14T02:32:02;14.80;93.40
52030;DHT22;38043;53.224;6.580;2023-06-14T02:34:27;14.80;93.90
52030;DHT22;38043;53.224;6.580;2023-06-14T02:36:53;14.70;94.00
52030;DHT22;38043;53.224;6.580;2023-06-14T02:39:20;14.80;93.70
52030;DHT22;38043;53.224;6.580;2023-06-14T02:41:49;14.80;93.70
52030;DHT22;38043;53.224;6.580;2023-06-14T02:44:18;14.70;94.40
52030;DHT22;38043;53.224;6.580;2023-06-14T02:46:43;14.70;94.30
52030;DHT22;38043;53.224;6.580;2023-06-14T02:49:10;14.70;94.50
52030;DHT22;38043;53.224;6.580;2023-06-14T02:51:36;14.70;94.60
52030;DHT22;38043;53.224;6.580;2023-06-14T02:54:02;14.70;94.70
52030;DHT22;38043;53.224;6.580;2023-06-14T02:56:28;14.70;94.90
52030;DHT22;38043;53.224;6.580;2023-06-14T02:58:54;14.70;94.90
52030;DHT22;38043;53.224;6.580;2023-06-14T03:01:19;14.70;95.10
52030;DHT22;38043;53.224;6.580;2023-06-14T03:03:46;14.70;95.20
52030;DHT22;38043;53.224;6.580;2023-06-14T03:06:12;14.70;95.40
52030;DHT22;38043;53.224;6.580;2023-06-14T03:08:38;14.70;95.70
52030;DHT22;38043;53.224;6.580;2023-06-14T03:11:04;14.70;95.80
52030;DHT22;38043;53.224;6.580;2023-06-14T03:13:31;14.70;96.10
52030;DHT22;38043;53.224;6.580;2023-06-14T03:15:59;14.70;96.00
52030;DHT22;38043;53.224;6.580;2023-06-14T03:18:26;14.70;96.30
52030;DHT22;38043;53.224;6.580;2023-06-14T03:20:52;14.70;96.50
52030;DHT22;38043;53.224;6.580;2023-06-14T03:23:19;14.70;96.70
52030;DHT22;38043;53.224;6.580;2023-06-14T03:25:44;14.70;97.00
52030;DHT22;38043;53.224;6.580;2023-06-14T03:28:10;14.70;97.00
52030;DHT22;38043;53.224;6.580;2023-06-14T03:30:36;14.70;97.00
52030;DHT22;38043;53.224;6.580;2023-06-14T03:33:02;14.80;97.20
52030;DHT22;38043;53.224;6.580;2023-06-14T03:35:28;14.70;97.40
52030;DHT22;38043;53.224;6.580;2023-06-14T03:37:54;14.80;97.60
52030;DHT22;38043;53.224;6.580;2023-06-14T03:40:21;14.80;97.90
52030;DHT22;38043;53.224;6.580;2023-06-14T03:42:46;14.80;98.00
52030;DHT22;38043;53.224;6.580;2023-06-14T03:45:12;14.70;98.10
52030;DHT22;38043;53.224;6.580;2023-06-14T03:47:38;14.80;98.60
52030;DHT22;38043;53.224;6.580;2023-06-14T03:50:04;14.80;98.20
52030;DHT22;38043;53.224;6.580;2023-06-14T03:52:31;14.80;98.60
52030;DHT22;38043;53.224;6.580;2023-06-14T03:54:58;14.80;98.90
52030;DHT22;38043;53.224;6.580;2023-06-14T03:57:26;14.80;98.70
52030;DHT22;38043;53.224;6.580;2023-06-14T03:59:51;14.90;99.00
52030;DHT22;38043;53.224;6.580;2023-06-14T04:02:17;14.80;99.70
52030;DHT22;38043;53.224;6.580;2023-06-14T04:04:44;14.90;99.70
52030;DHT22;38043;53.224;6.580;2023-06-14T04:07:11;14.80;99.60
52030;DHT22;38043;53.224;6.580;2023-06-14T04:09:37;14.80;99.70
52030;DHT22;38043;53.224;6.580;2023-06-14T04:12:04;14.90;99.90
52030;DHT22;38043;53.224;6.580;2023-06-14T04:14:30;14.90;99.90
52030;DHT22;38043;53.224;6.580;2023-06-14T04:16:58;15.00;99.90
52030;DHT22;38043;53.224;6.580;2023-06-14T04:19:24;14.90;99.90
52030;DHT22;38043;53.224;6.580;2023-06-14T04:21:50;14.90;99.90
52030;DHT22;38043;53.224;6.580;2023-06-14T04:24:16;14.90;99.90
52030;DHT22;38043;53.224;6.580;2023-06-14T04:26:45;15.00;99.90
52030;DHT22;38043;53.224;6.580;2023-06-14T04:29:13;15.00;99.90
52030;DHT22;38043;53.224;6.580;2023-06-14T04:31:42;15.00;99.90
52030;DHT22;38043;53.224;6.580;2023-06-14T04:34:08;15.00;99.90
52030;DHT22;38043;53.224;6.580;2023-06-14T04:36:34;15.10;99.90
52030;DHT22;38043;53.224;6.580;2023-06-14T04:39:04;15.10;99.90
52030;DHT22;38043;53.224;6.580;2023-06-14T04:41:30;15.10;99.90
52030;DHT22;38043;53.224;6.580;2023-06-14T04:43:57;15.10;99.90
52030;DHT22;38043;53.224;6.580;2023-06-14T04:46:27;15.20;99.90
52030;DHT22;38043;53.224;6.580;2023-06-14T04:48:54;15.20;99.90
52030;DHT22;38043;53.224;6.580;2023-06-14T04:51:19;15.30;99.90
52030;DHT22;38043;53.224;6.580;2023-06-14T04:53:47;15.40;99.90
52030;DHT22;38043;53.224;6.580;2023-06-14T04:56:15;15.50;99.90
52030;DHT22;38043;53.224;6.580;2023-06-14T04:58:40;15.50;99.90
52030;DHT22;38043;53.224;6.580;2023-06-14T05:01:08;15.60;99.90
52030;DHT22;38043;53.224;6.580;2023-06-14T05:03:34;15.70;99.90
52030;DHT22;38043;53.224;6.580;2023-06-14T05:06:00;15.80;99.90
52030;DHT22;38043;53.224;6.580;2023-06-14T05:08:26;15.90;99.90
52030;DHT22;38043;53.224;6.580;2023-06-14T05:10:54;16.00;99.90
52030;DHT22;38043;53.224;6.580;2023-06-14T05:13:20;16.10;99.90
52030;DHT22;38043;53.224;6.580;2023-06-14T05:15:48;16.20;99.90
52030;DHT22;38043;53.224;6.580;2023-06-14T05:18:14;16.30;99.90
52030;DHT22;38043;53.224;6.580;2023-06-14T05:20:40;16.40;99.90
52030;DHT22;38043;53.224;6.580;2023-06-14T05:23:07;16.50;99.90
52030;DHT22;38043;53.224;6.580;2023-06-14T05:25:33;16.70;99.80
52030;DHT22;38043;53.224;6.580;2023-06-14T05:27:58;16.80;99.00
52030;DHT22;38043;53.224;6.580;2023-06-14T05:30:24;16.90;98.90
52030;DHT22;38043;53.224;6.580;2023-06-14T05:32:50;17.00;98.80
52030;DHT22;38043;53.224;6.580;2023-06-14T05:35:15;17.10;98.40
52030;DHT22;38043;53.224;6.580;2023-06-14T05:37:41;17.10;98.10
52030;DHT22;38043;53.224;6.580;2023-06-14T05:40:07;17.10;97.60
52030;DHT22;38043;53.224;6.580;2023-06-14T05:42:34;17.20;98.00
52030;DHT22;38043;53.224;6.580;2023-06-14T05:45:00;17.30;97.60
52030;DHT22;38043;53.224;6.580;2023-06-14T05:47:26;17.30;97.40
52030;DHT22;38043;53.224;6.580;2023-06-14T05:49:53;17.50;97.40
52030;DHT22;38043;53.224;6.580;2023-06-14T05:52:19;17.70;97.40
52030;DHT22;38043;53.224;6.580;2023-06-14T05:54:46;18.10;97.10
52030;DHT22;38043;53.224;6.580;2023-06-14T05:57:12;18.50;96.40
52030;DHT22;38043;53.224;6.580;2023-06-14T05:59:38;18.80;95.50
52030;DHT22;38043;53.224;6.580;2023-06-14T06:02:03;19.00;95.00
52030;DHT22;38043;53.224;6.580;2023-06-14T06:04:29;19.10;94.90
52030;DHT22;38043;53.224;6.580;2023-06-14T06:06:55;19.50;94.10
52030;DHT22;38043;53.224;6.580;2023-06-14T06:09:20;19.70;93.80
52030;DHT22;38043;53.224;6.580;2023-06-14T06:11:47;20.00;93.00
52030;DHT22;38043;53.224;6.580;2023-06-14T06:14:13;20.20;92.60
52030;DHT22;38043;53.224;6.580;2023-06-14T06:16:38;20.30;91.90
52030;DHT22;38043;53.224;6.580;2023-06-14T06:19:04;20.10;91.50
52030;DHT22;38043;53.224;6.580;2023-06-14T06:21:30;19.90;91.80
52030;DHT22;38043;53.224;6.580;2023-06-14T06:23:57;19.80;92.00
52030;DHT22;38043;53.224;6.580;2023-06-14T06:26:23;19.60;92.20
52030;DHT22;38043;53.224;6.580;2023-06-14T06:28:49;19.50;92.40
52030;DHT22;38043;53.224;6.580;2023-06-14T06:31:14;19.50;92.50
52030;DHT22;38043;53.224;6.580;2023-06-14T06:33:40;19.40;92.50
52030;DHT22;38043;53.224;6.580;2023-06-14T06:36:06;19.40;92.60
52030;DHT22;38043;53.224;6.580;2023-06-14T06:38:31;19.40;92.50
52030;DHT22;38043;53.224;6.580;2023-06-14T06:40:57;19.40;92.70
52030;DHT22;38043;53.224;6.580;2023-06-14T06:43:23;19.50;92.70
52030;DHT22;38043;53.224;6.580;2023-06-14T06:45:48;19.60;92.50
52030;DHT22;38043;53.224;6.580;2023-06-14T06:48:14;19.60;92.40
52030;DHT22;38043;53.224;6.580;2023-06-14T06:50:42;19.80;92.50
52030;DHT22;38043;53.224;6.580;2023-06-14T06:53:07;19.80;92.10
52030;DHT22;38043;53.224;6.580;2023-06-14T06:55:33;19.90;92.10
52030;DHT22;38043;53.224;6.580;2023-06-14T06:57:59;20.00;92.20
52030;DHT22;38043;53.224;6.580;2023-06-14T07:00:25;20.10;91.90
52030;DHT22;38043;53.224;6.580;2023-06-14T07:02:51;20.10;91.60
52030;DHT22;38043;53.224;6.580;2023-06-14T07:05:17;20.30;91.70
52030;DHT22;38043;53.224;6.580;2023-06-14T07:07:43;20.40;91.50
52030;DHT22;38043;53.224;6.580;2023-06-14T07:10:09;20.50;91.30
52030;DHT22;38043;53.224;6.580;2023-06-14T07:12:34;20.50;91.20
52030;DHT22;38043;53.224;6.580;2023-06-14T07:15:07;20.70;91.10
52030;DHT22;38043;53.224;6.580;2023-06-14T07:17:34;20.80;90.90
52030;DHT22;38043;53.224;6.580;2023-06-14T07:20:00;20.80;90.30
52030;DHT22;38043;53.224;6.580;2023-06-14T07:22:26;20.90;90.30
52030;DHT22;38043;53.224;6.580;2023-06-14T07:24:52;21.00;90.00
52030;DHT22;38043;53.224;6.580;2023-06-14T07:27:18;21.10;90.00
52030;DHT22;38043;53.224;6.580;2023-06-14T07:29:43;21.30;90.00
52030;DHT22;38043;53.224;6.580;2023-06-14T07:32:09;21.40;89.20
52030;DHT22;38043;53.224;6.580;2023-06-14T07:34:35;21.50;88.20
52030;DHT22;38043;53.224;6.580;2023-06-14T07:37:00;21.60;88.20
52030;DHT22;38043;53.224;6.580;2023-06-14T07:39:26;21.70;86.50
52030;DHT22;38043;53.224;6.580;2023-06-14T07:41:51;21.70;85.70
52030;DHT22;38043;53.224;6.580;2023-06-14T07:44:17;21.80;85.40
52030;DHT22;38043;53.224;6.580;2023-06-14T07:46:42;21.80;85.20
52030;DHT22;38043;53.224;6.580;2023-06-14T07:49:08;21.90;85.20
52030;DHT22;38043;53.224;6.580;2023-06-14T07:51:34;22.00;84.00
52030;DHT22;38043;53.224;6.580;2023-06-14T07:54:00;22.10;82.90
52030;DHT22;38043;53.224;6.580;2023-06-14T07:56:30;22.00;83.00
52030;DHT22;38043;53.224;6.580;2023-06-14T07:58:56;22.00;82.60
52030;DHT22;38043;53.224;6.580;2023-06-14T08:01:21;22.10;83.20
52030;DHT22;38043;53.224;6.580;2023-06-14T08:03:49;22.20;83.30
52030;DHT22;38043;53.224;6.580;2023-06-14T08:06:15;22.20;82.80
52030;DHT22;38043;53.224;6.580;2023-06-14T08:08:41;22.20;82.50
52030;DHT22;38043;53.224;6.580;2023-06-14T08:11:06;22.30;82.90
52030;DHT22;38043;53.224;6.580;2023-06-14T08:13:32;22.30;82.80
52030;DHT22;38043;53.224;6.580;2023-06-14T08:15:57;22.40;83.10
52030;DHT22;38043;53.224;6.580;2023-06-14T08:18:23;22.60;82.90
52030;DHT22;38043;53.224;6.580;2023-06-14T08:20:49;22.70;82.10
52030;DHT22;38043;53.224;6.580;2023-06-14T08:23:15;22.70;80.50
52030;DHT22;38043;53.224;6.580;2023-06-14T08:25:44;22.70;80.20
52030;DHT22;38043;53.224;6.580;2023-06-14T08:28:10;22.80;79.90
52030;DHT22;38043;53.224;6.580;2023-06-14T08:30:36;22.80;80.30
52030;DHT22;38043;53.224;6.580;2023-06-14T08:33:01;22.90;80.60
52030;DHT22;38043;53.224;6.580;2023-06-14T08:35:27;22.90;80.00
52030;DHT22;38043;53.224;6.580;2023-06-14T08:37:53;23.00;79.90
52030;DHT22;38043;53.224;6.580;2023-06-14T08:40:23;23.10;79.60
52030;DHT22;38043;53.224;6.580;2023-06-14T08:42:53;23.20;79.50
52030;DHT22;38043;53.224;6.580;2023-06-14T08:45:20;23.40;78.70
52030;DHT22;38043;53.224;6.580;2023-06-14T08:47:47;23.40;77.60
52030;DHT22;38043;53.224;6.580;2023-06-14T08:50:27;23.40;76.60
52030;DHT22;38043;53.224;6.580;2023-06-14T08:53:01;23.40;76.30
52030;DHT22;38043;53.224;6.580;2023-06-14T08:55:28;23.60;76.70
52030;DHT22;38043;53.224;6.580;2023-06-14T08:57:58;23.70;77.00
52030;DHT22;38043;53.224;6.580;2023-06-14T09:00:25;23.70;76.40
52030;DHT22;38043;53.224;6.580;2023-06-14T09:02:53;23.80;76.60
52030;DHT22;38043;53.224;6.580;2023-06-14T09:05:26;23.80;76.70
52030;DHT22;38043;53.224;6.580;2023-06-14T09:07:53;23.80;76.80
52030;DHT22;38043;53.224;6.580;2023-06-14T09:10:21;23.80;76.70
52030;DHT22;38043;53.224;6.580;2023-06-14T09:12:47;23.80;76.80
52030;DHT22;38043;53.224;6.580;2023-06-14T09:15:13;23.70;76.50
52030;DHT22;38043;53.224;6.580;2023-06-14T09:17:40;23.70;76.30
52030;DHT22;38043;53.224;6.580;2023-06-14T09:20:07;23.70;76.30
52030;DHT22;38043;53.224;6.580;2023-06-14T09:22:37;23.80;76.50
52030;DHT22;38043;53.224;6.580;2023-06-14T09:25:03;23.80;76.40
52030;DHT22;38043;53.224;6.580;2023-06-14T09:27:30;23.90;76.30
52030;DHT22;38043;53.224;6.580;2023-06-14T09:29:56;24.00;76.10
52030;DHT22;38043;53.224;6.580;2023-06-14T09:32:22;24.10;76.10
52030;DHT22;38043;53.224;6.580;2023-06-14T09:34:48;24.20;74.70
52030;DHT22;38043;53.224;6.580;2023-06-14T09:37:27;24.30;75.60
52030;DHT22;38043;53.224;6.580;2023-06-14T09:39:53;24.40;75.00
52030;DHT22;38043;53.224;6.580;2023-06-14T09:42:22;24.40;74.60
52030;DHT22;38043;53.224;6.580;2023-06-14T09:44:53;24.50;75.20
52030;DHT22;38043;53.224;6.580;2023-06-14T09:47:20;24.60;74.40
52030;DHT22;38043;53.224;6.580;2023-06-14T09:49:47;24.50;73.50
52030;DHT22;38043;53.224;6.580;2023-06-14T09:52:17;24.50;74.10
52030;DHT22;38043;53.224;6.580;2023-06-14T09:54:45;24.60;74.10
52030;DHT22;38043;53.224;6.580;2023-06-14T09:57:13;24.60;73.80
52030;DHT22;38043;53.224;6.580;2023-06-14T09:59:42;24.70;73.40
52030;DHT22;38043;53.224;6.580;2023-06-14T10:02:26;24.70;73.10
52030;DHT22;38043;53.224;6.580;2023-06-14T10:05:04;24.70;72.80
52030;DHT22;38043;53.224;6.580;2023-06-14T10:10:09;24.80;72.10
52030;DHT22;38043;53.224;6.580;2023-06-14T10:12:35;24.80;72.50
52030;DHT22;38043;53.224;6.580;2023-06-14T10:15:01;24.80;72.10
52030;DHT22;38043;53.224;6.580;2023-06-14T10:17:50;24.80;71.70
52030;DHT22;38043;53.224;6.580;2023-06-14T10:20:35;24.70;70.90
52030;DHT22;38043;53.224;6.580;2023-06-14T10:25:35;24.90;71.10
52030;DHT22;38043;53.224;6.580;2023-06-14T10:28:17;24.90;70.80
52030;DHT22;38043;53.224;6.580;2023-06-14T10:31:09;25.00;71.40
52030;DHT22;38043;53.224;6.580;2023-06-14T10:33:56;25.20;70.90
52030;DHT22;38043;53.224;6.580;2023-06-14T10:39:04;25.40;70.50
52030;DHT22;38043;53.224;6.580;2023-06-14T10:41:30;25.60;70.50
52030;DHT22;38043;53.224;6.580;2023-06-14T10:46:58;25.80;70.50
52030;DHT22;38043;53.224;6.580;2023-06-14T10:52:09;26.20;70.00
52030;DHT22;38043;53.224;6.580;2023-06-14T10:54:37;26.40;70.10
52030;DHT22;38043;53.224;6.580;2023-06-14T10:57:06;26.70;69.20
52030;DHT22;38043;53.224;6.580;2023-06-14T10:59:33;26.80;67.70
52030;DHT22;38043;53.224;6.580;2023-06-14T11:05:04;26.70;67.70
52030;DHT22;38043;53.224;6.580;2023-06-14T11:13:01;27.30;67.30
52030;DHT22;38043;53.224;6.580;2023-06-14T11:15:29;27.20;67.60
52030;DHT22;38043;53.224;6.580;2023-06-14T11:17:56;27.10;67.00
52030;DHT22;38043;53.224;6.580;2023-06-14T11:20:25;27.10;66.60
52030;DHT22;38043;53.224;6.580;2023-06-14T11:22:52;27.00;66.50
52030;DHT22;38043;53.224;6.580;2023-06-14T11:25:18;26.90;64.80
52030;DHT22;38043;53.224;6.580;2023-06-14T11:27:44;26.70;66.10
52030;DHT22;38043;53.224;6.580;2023-06-14T11:30:11;26.90;66.40
52030;DHT22;38043;53.224;6.580;2023-06-14T11:32:40;27.10;66.50
52030;DHT22;38043;53.224;6.580;2023-06-14T11:35:07;27.40;66.10
52030;DHT22;38043;53.224;6.580;2023-06-14T11:37:34;27.50;65.20
52030;DHT22;38043;53.224;6.580;2023-06-14T11:40:03;27.30;64.80
52030;DHT22;38043;53.224;6.580;2023-06-14T11:42:33;27.50;66.10
52030;DHT22;38043;53.224;6.580;2023-06-14T11:44:59;27.60;64.40
52030;DHT22;38043;53.224;6.580;2023-06-14T11:47:30;27.40;64.40
52030;DHT22;38043;53.224;6.580;2023-06-14T11:49:58;27.50;64.90
52030;DHT22;38043;53.224;6.580;2023-06-14T11:52:24;27.60;63.90
52030;DHT22;38043;53.224;6.580;2023-06-14T11:54:50;27.60;63.30
52030;DHT22;38043;53.224;6.580;2023-06-14T11:57:17;27.90;63.70
52030;DHT22;38043;53.224;6.580;2023-06-14T11:59:44;28.10;62.80
52030;DHT22;38043;53.224;6.580;2023-06-14T12:02:16;28.00;63.10
52030;DHT22;38043;53.224;6.580;2023-06-14T12:04:51;28.30;63.60
52030;DHT22;38043;53.224;6.580;2023-06-14T12:07:19;28.30;62.60
52030;DHT22;38043;53.224;6.580;2023-06-14T12:12:20;28.40;62.40
52030;DHT22;38043;53.224;6.580;2023-06-14T12:14:47;28.40;61.60
52030;DHT22;38043;53.224;6.580;2023-06-14T12:17:12;28.00;62.10
52030;DHT22;38043;53.224;6.580;2023-06-14T12:19:49;28.00;61.80
52030;DHT22;38043;53.224;6.580;2023-06-14T12:22:16;27.80;61.80
52030;DHT22;38043;53.224;6.580;2023-06-14T12:24:46;27.80;62.40
52030;DHT22;38043;53.224;6.580;2023-06-14T12:27:12;27.90;62.20
52030;DHT22;38043;53.224;6.580;2023-06-14T12:29:41;27.80;61.80
52030;DHT22;38043;53.224;6.580;2023-06-14T12:32:09;27.70;61.60
52030;DHT22;38043;53.224;6.580;2023-06-14T12:34:35;27.40;62.40
52030;DHT22;38043;53.224;6.580;2023-06-14T12:37:01;27.10;62.70
52030;DHT22;38043;53.224;6.580;2023-06-14T12:39:30;27.10;63.70
52030;DHT22;38043;53.224;6.580;2023-06-14T12:41:57;26.70;63.10
52030;DHT22;38043;53.224;6.580;2023-06-14T12:44:23;26.40;64.00
52030;DHT22;38043;53.224;6.580;2023-06-14T12:46:49;26.20;64.40
52030;DHT22;38043;53.224;6.580;2023-06-14T12:49:16;26.50;65.50
52030;DHT22;38043;53.224;6.580;2023-06-14T12:51:42;26.80;64.20
52030;DHT22;38043;53.224;6.580;2023-06-14T12:54:08;27.00;64.30
52030;DHT22;38043;53.224;6.580;2023-06-14T12:56:34;27.10;64.10
52030;DHT22;38043;53.224;6.580;2023-06-14T12:59:00;27.30;64.40
52030;DHT22;38043;53.224;6.580;2023-06-14T13:01:28;27.40;63.10
52030;DHT22;38043;53.224;6.580;2023-06-14T13:03:54;27.50;63.10
52030;DHT22;38043;53.224;6.580;2023-06-14T13:06:23;27.60;62.60
52030;DHT22;38043;53.224;6.580;2023-06-14T13:08:50;27.90;63.20
52030;DHT22;38043;53.224;6.580;2023-06-14T13:11:15;28.10;63.00
52030;DHT22;38043;53.224;6.580;2023-06-14T13:13:41;28.10;61.90
52030;DHT22;38043;53.224;6.580;2023-06-14T13:16:07;28.30;62.40
52030;DHT22;38043;53.224;6.580;2023-06-14T13:18:33;27.90;61.70
52030;DHT22;38043;53.224;6.580;2023-06-14T13:20:58;27.50;61.90
52030;DHT22;38043;53.224;6.580;2023-06-14T13:23:24;27.10;62.50
52030;DHT22;38043;53.224;6.580;2023-06-14T13:25:50;26.90;62.80
52030;DHT22;38043;53.224;6.580;2023-06-14T13:28:16;26.60;62.60
52030;DHT22;38043;53.224;6.580;2023-06-14T13:30:42;26.70;63.20
52030;DHT22;38043;53.224;6.580;2023-06-14T13:33:08;26.90;63.60
52030;DHT22;38043;53.224;6.580;2023-06-14T13:35:34;27.10;63.20
52030;DHT22;38043;53.224;6.580;2023-06-14T13:38:00;27.40;62.70
52030;DHT22;38043;53.224;6.580;2023-06-14T13:40:25;27.40;62.10
52030;DHT22;38043;53.224;6.580;2023-06-14T13:42:51;27.10;62.30
52030;DHT22;38043;53.224;6.580;2023-06-14T13:45:17;27.10;62.90
52030;DHT22;38043;53.224;6.580;2023-06-14T13:47:43;27.30;62.90
52030;DHT22;38043;53.224;6.580;2023-06-14T13:50:11;27.50;62.70
52030;DHT22;38043;53.224;6.580;2023-06-14T13:52:38;27.60;61.70
52030;DHT22;38043;53.224;6.580;2023-06-14T13:55:04;28.20;62.50
52030;DHT22;38043;53.224;6.580;2023-06-14T13:57:30;27.60;61.80
52030;DHT22;38043;53.224;6.580;2023-06-14T13:59:56;27.60;62.10
52030;DHT22;38043;53.224;6.580;2023-06-14T14:02:27;27.70;62.20
52030;DHT22;38043;53.224;6.580;2023-06-14T14:04:53;27.60;62.00
52030;DHT22;38043;53.224;6.580;2023-06-14T14:07:20;27.90;62.70
52030;DHT22;38043;53.224;6.580;2023-06-14T14:09:45;27.90;61.60
52030;DHT22;38043;53.224;6.580;2023-06-14T14:12:11;28.20;62.10
52030;DHT22;38043;53.224;6.580;2023-06-14T14:14:37;28.00;61.00
52030;DHT22;38043;53.224;6.580;2023-06-14T14:17:03;27.60;61.50
52030;DHT22;38043;53.224;6.580;2023-06-14T14:19:29;27.50;61.80
52030;DHT22;38043;53.224;6.580;2023-06-14T14:21:55;27.70;61.70
52030;DHT22;38043;53.224;6.580;2023-06-14T14:24:20;28.10;62.10
52030;DHT22;38043;53.224;6.580;2023-06-14T14:26:46;28.40;60.30
52030;DHT22;38043;53.224;6.580;2023-06-14T14:29:16;28.50;60.30
52030;DHT22;38043;53.224;6.580;2023-06-14T14:31:42;28.40;60.30
52030;DHT22;38043;53.224;6.580;2023-06-14T14:34:08;27.80;60.10
52030;DHT22;38043;53.224;6.580;2023-06-14T14:36:33;27.60;60.50
52030;DHT22;38043;53.224;6.580;2023-06-14T14:39:06;28.10;61.40
52030;DHT22;38043;53.224;6.580;2023-06-14T14:41:32;28.20;60.00
52030;DHT22;38043;53.224;6.580;2023-06-14T14:43:58;27.80;60.30
52030;DHT22;38043;53.224;6.580;2023-06-14T14:46:26;27.40;60.90
52030;DHT22;38043;53.224;6.580;2023-06-14T14:48:52;27.10;61.70
52030;DHT22;38043;53.224;6.580;2023-06-14T14:51:18;27.30;61.70
52030;DHT22;38043;53.224;6.580;2023-06-14T14:53:44;27.90;62.10
52030;DHT22;38043;53.224;6.580;2023-06-14T14:56:09;28.70;61.70
52030;DHT22;38043;53.224;6.580;2023-06-14T14:58:35;29.30;60.80
52030;DHT22;38043;53.224;6.580;2023-06-14T15:01:01;29.70;59.90
52030;DHT22;38043;53.224;6.580;2023-06-14T15:03:27;30.10;59.50
52030;DHT22;38043;53.224;6.580;2023-06-14T15:05:52;30.30;59.10
52030;DHT22;38043;53.224;6.580;2023-06-14T15:08:18;30.60;58.20
52030;DHT22;38043;53.224;6.580;2023-06-14T15:10:44;30.70;58.70
52030;DHT22;38043;53.224;6.580;2023-06-14T15:13:10;30.40;58.40
52030;DHT22;38043;53.224;6.580;2023-06-14T15:15:36;29.50;57.70
52030;DHT22;38043;53.224;6.580;2023-06-14T15:18:02;28.80;58.20
52030;DHT22;38043;53.224;6.580;2023-06-14T15:20:28;28.30;59.30
52030;DHT22;38043;53.224;6.580;2023-06-14T15:22:54;27.70;59.90
52030;DHT22;38043;53.224;6.580;2023-06-14T15:25:29;27.60;60.90
52030;DHT22;38043;53.224;6.580;2023-06-14T15:27:55;27.40;60.70
52030;DHT22;38043;53.224;6.580;2023-06-14T15:30:22;27.50;61.40
52030;DHT22;38043;53.224;6.580;2023-06-14T15:32:48;27.50;60.80
52030;DHT22;38043;53.224;6.580;2023-06-14T15:35:16;27.10;60.60
52030;DHT22;38043;53.224;6.580;2023-06-14T15:37:41;26.90;61.10
52030;DHT22;38043;53.224;6.580;2023-06-14T15:40:08;26.90;61.90
52030;DHT22;38043;53.224;6.580;2023-06-14T15:42:33;26.90;61.20
52030;DHT22;38043;53.224;6.580;2023-06-14T15:44:59;26.80;61.10
52030;DHT22;38043;53.224;6.580;2023-06-14T15:47:25;26.60;60.90
52030;DHT22;38043;53.224;6.580;2023-06-14T15:49:50;26.40;61.50
52030;DHT22;38043;53.224;6.580;2023-06-14T15:52:16;26.10;62.20
52030;DHT22;38043;53.224;6.580;2023-06-14T15:54:42;26.00;62.60
52030;DHT22;38043;53.224;6.580;2023-06-14T15:57:07;25.90;62.90